createdAt,value
2023-02-18T00:01:42.268Z,3.50
2023-02-18T00:04:10.192Z,4.20
2023-02-18T00:06:39.053Z,3.70
2023-02-18T00:09:07.219Z,3.80
2023-02-18T00:11:37.070Z,3.50
2023-02-18T00:14:08.892Z,4.00
2023-02-18T00:16:37.431Z,4.20
2023-02-18T00:19:07.502Z,3.80
2023-02-18T00:21:36.176Z,4.00
2023-02-18T00:24:06.367Z,3.90
2023-02-18T00:26:35.803Z,4.00
2023-02-18T00:29:04.710Z,3.80
2023-02-18T00:31:37.665Z,3.40
2023-02-18T00:34:06.190Z,3.70
2023-02-18T00:36:35.977Z,3.90
2023-02-18T00:39:06.838Z,4.10
2023-02-18T00:41:35.482Z,3.50
2023-02-18T00:44:04.889Z,4.00
2023-02-18T00:46:33.666Z,4.30
2023-02-18T00:49:02.545Z,4.10
2023-02-18T00:51:31.068Z,4.10
2023-02-18T00:53:59.349Z,3.80
2023-02-18T00:56:27.958Z,4.20
2023-02-18T00:58:56.069Z,4.00
2023-02-18T01:01:24.678Z,4.20
2023-02-18T01:03:52.828Z,4.20
2023-02-18T01:06:22.516Z,4.00
2023-02-18T01:08:50.736Z,4.10
2023-02-18T01:11:19.296Z,3.70
2023-02-18T01:13:47.786Z,4.00
2023-02-18T01:16:17.291Z,4.00
2023-02-18T01:18:47.935Z,4.60
2023-02-18T01:21:16.800Z,3.90
2023-02-18T01:23:44.869Z,4.20
2023-02-18T01:26:17.035Z,4.10
2023-02-18T01:28:45.219Z,3.30
2023-02-18T01:31:14.638Z,4.10
2023-02-18T01:33:43.471Z,4.00
2023-02-18T01:36:12.289Z,4.00
2023-02-18T01:38:40.666Z,4.10
2023-02-18T01:41:09.820Z,4.60
2023-02-18T01:43:38.620Z,4.00
2023-02-18T01:46:15.847Z,3.90
2023-02-18T01:48:58.958Z,4.30
2023-02-18T01:51:32.215Z,4.50
2023-02-18T01:54:18.439Z,4.60
2023-02-18T01:57:05.060Z,4.40
2023-02-18T01:59:56.549Z,4.90
2023-02-18T02:02:27.616Z,4.30
2023-02-18T02:04:56.256Z,4.20
2023-02-18T02:07:27.237Z,4.10
2023-02-18T02:09:58.228Z,4.00
2023-02-18T02:12:47.634Z,4.60
2023-02-18T02:15:21.814Z,5.00
2023-02-18T02:17:58.708Z,4.40
2023-02-18T02:20:44.868Z,4.40
2023-02-18T02:23:40.857Z,4.50
2023-02-18T02:26:31.341Z,4.60
2023-02-18T02:28:59.520Z,4.60
2023-02-18T02:31:42.693Z,4.00
2023-02-18T02:34:27.401Z,4.50
2023-02-18T02:37:08.777Z,4.40
2023-02-18T02:39:39.726Z,4.50
2023-02-18T02:42:16.905Z,4.90
2023-02-18T02:45:22.816Z,4.20
2023-02-18T02:48:17.895Z,4.40
2023-02-18T02:50:59.761Z,4.70
2023-02-18T02:53:33.880Z,4.30
2023-02-18T02:56:02.055Z,4.80
2023-02-18T02:58:30.549Z,4.30
2023-02-18T03:01:20.825Z,4.40
2023-02-18T03:04:18.689Z,4.50
2023-02-18T03:07:11.540Z,4.60
2023-02-18T03:10:01.015Z,4.90
2023-02-18T03:13:06.608Z,4.50
2023-02-18T03:15:47.491Z,3.90
2023-02-18T03:18:34.955Z,4.40
2023-02-18T03:21:15.248Z,4.00
2023-02-18T03:23:54.342Z,4.10
2023-02-18T03:26:26.568Z,4.50
2023-02-18T03:28:58.224Z,4.30
2023-02-18T03:31:29.351Z,4.30
2023-02-18T03:34:03.961Z,4.20
2023-02-18T03:36:35.181Z,4.40
2023-02-18T03:39:07.816Z,4.10
2023-02-18T03:41:36.130Z,4.00
2023-02-18T03:44:07.395Z,4.00
2023-02-18T03:46:37.726Z,4.40
2023-02-18T03:49:06.548Z,4.20
2023-02-18T03:51:34.658Z,4.30
2023-02-18T03:54:02.935Z,3.70
2023-02-18T03:56:31.209Z,4.00
2023-02-18T03:58:59.797Z,3.70
2023-02-18T04:01:28.293Z,3.60
2023-02-18T04:03:56.802Z,3.90
2023-02-18T04:06:24.845Z,3.70
2023-02-18T04:08:52.886Z,3.80
2023-02-18T04:11:21.069Z,3.80
2023-02-18T04:13:49.234Z,3.40
2023-02-18T04:16:17.332Z,3.60
2023-02-18T04:18:45.381Z,3.50
2023-02-18T04:21:13.484Z,3.40
2023-02-18T04:23:41.523Z,3.10
2023-02-18T04:26:09.928Z,3.30
2023-02-18T04:28:38.165Z,3.20
2023-02-18T04:31:06.313Z,3.40
2023-02-18T04:33:34.409Z,3.40
2023-02-18T04:36:02.602Z,3.40
2023-02-18T04:38:30.653Z,3.60
2023-02-18T04:40:58.733Z,3.50
2023-02-18T04:43:26.792Z,3.20
2023-02-18T04:45:54.907Z,3.30
2023-02-18T04:48:23.145Z,3.50
2023-02-18T04:50:51.210Z,3.10
2023-02-18T04:53:19.182Z,3.20
2023-02-18T04:55:51.881Z,3.40
2023-02-18T04:58:21.671Z,3.50
2023-02-18T05:00:49.741Z,3.70
2023-02-18T05:03:17.841Z,3.50
2023-02-18T05:05:46.103Z,3.20
2023-02-18T05:08:14.571Z,3.40
2023-02-18T05:10:42.653Z,3.60
2023-02-18T05:13:10.812Z,3.30
2023-02-18T05:15:39.097Z,3.30
2023-02-18T05:18:08.081Z,3.30
2023-02-18T05:20:36.460Z,3.50
2023-02-18T05:23:04.428Z,3.20
2023-02-18T05:25:32.495Z,3.50
2023-02-18T05:28:00.562Z,3.50
2023-02-18T05:30:28.668Z,3.40
2023-02-18T05:32:56.808Z,3.60
2023-02-18T05:35:24.841Z,3.70
2023-02-18T05:37:52.847Z,3.60
2023-02-18T05:40:20.921Z,3.60
2023-02-18T05:42:49.152Z,3.30
2023-02-18T05:45:18.185Z,3.30
2023-02-18T05:47:46.277Z,3.70
2023-02-18T05:50:14.443Z,3.70
2023-02-18T05:52:42.498Z,3.70
2023-02-18T05:55:10.668Z,4.30
2023-02-18T05:57:38.745Z,4.40
2023-02-18T06:00:09.969Z,3.60
2023-02-18T06:02:38.357Z,4.10
2023-02-18T06:05:07.571Z,3.80
2023-02-18T06:07:36.042Z,3.70
2023-02-18T06:10:05.641Z,4.10
2023-02-18T06:12:33.731Z,3.90
2023-02-18T06:15:01.993Z,4.60
2023-02-18T06:17:30.067Z,3.70
2023-02-18T06:19:58.161Z,3.80
2023-02-18T06:22:26.204Z,3.80
2023-02-18T06:24:54.280Z,4.30
2023-02-18T06:27:22.346Z,4.70
2023-02-18T06:29:50.315Z,4.70
2023-02-18T06:32:18.481Z,4.50
2023-02-18T06:34:46.566Z,4.10
2023-02-18T06:37:14.635Z,4.00
2023-02-18T06:39:42.696Z,4.00
2023-02-18T06:42:10.864Z,5.00
2023-02-18T06:44:39.054Z,5.00
2023-02-18T06:47:07.576Z,4.90
2023-02-18T06:49:36.711Z,4.80
2023-02-18T06:52:05.480Z,4.60
2023-02-18T06:54:34.585Z,4.40
2023-02-18T06:57:02.664Z,4.20
2023-02-18T06:59:30.599Z,4.40
2023-02-18T07:01:58.613Z,4.60
2023-02-18T07:04:26.680Z,5.30
2023-02-18T07:06:54.743Z,4.50
2023-02-18T07:09:22.821Z,4.10
2023-02-18T07:11:50.886Z,4.10
2023-02-18T07:14:18.835Z,4.80
2023-02-18T07:16:47.164Z,4.40
2023-02-18T07:19:15.484Z,5.30
2023-02-18T07:21:43.778Z,6.10
2023-02-18T07:24:11.858Z,7.00
2023-02-18T07:26:40.034Z,6.30
2023-02-18T07:29:08.252Z,4.90
2023-02-18T07:31:36.308Z,4.90
2023-02-18T07:34:04.440Z,5.50
2023-02-18T07:36:32.507Z,4.80
2023-02-18T07:39:00.682Z,5.30
2023-02-18T07:41:28.760Z,5.00
2023-02-18T07:43:56.826Z,4.70
2023-02-18T07:46:25.072Z,4.60
2023-02-18T07:48:53.173Z,4.10
2023-02-18T07:51:21.285Z,4.20
2023-02-18T07:53:49.326Z,4.00
2023-02-18T07:56:18.604Z,3.80
2023-02-18T07:58:46.691Z,4.60
2023-02-18T08:01:15.842Z,4.50
2023-02-18T08:03:44.158Z,4.30
2023-02-18T08:06:41.352Z,5.40
2023-02-18T08:09:09.883Z,3.90
2023-02-18T08:11:38.469Z,4.00
2023-02-18T08:14:07.043Z,4.30
2023-02-18T08:16:35.561Z,4.30
2023-02-18T08:19:06.471Z,4.70
2023-02-18T08:21:34.933Z,5.00
2023-02-18T08:24:03.130Z,4.40
2023-02-18T08:26:31.297Z,4.90
2023-02-18T08:28:59.377Z,4.10
2023-02-18T08:31:30.112Z,4.30
2023-02-18T08:34:00.843Z,3.60
2023-02-18T08:36:29.331Z,3.80
2023-02-18T08:38:58.189Z,4.00
2023-02-18T08:41:26.411Z,4.00
2023-02-18T08:43:54.674Z,4.10
2023-02-18T08:46:31.577Z,4.00
2023-02-18T08:49:05.460Z,3.80
2023-02-18T08:51:34.147Z,3.60
2023-02-18T08:54:02.547Z,3.90
2023-02-18T08:56:31.799Z,4.00
2023-02-18T08:58:59.917Z,4.00
2023-02-18T09:01:28.066Z,3.90
2023-02-18T09:03:56.566Z,4.30
2023-02-18T09:06:25.400Z,4.50
2023-02-18T09:08:53.686Z,4.40
2023-02-18T09:11:21.887Z,4.40
2023-02-18T09:13:49.931Z,5.30
2023-02-18T09:16:19.142Z,5.00
2023-02-18T09:18:48.538Z,3.90
2023-02-18T09:21:19.182Z,4.20
2023-02-18T09:23:47.238Z,3.70
2023-02-18T09:26:17.138Z,3.80
2023-02-18T09:28:45.216Z,3.90
2023-02-18T09:31:16.592Z,4.70
2023-02-18T09:34:06.567Z,3.90
2023-02-18T09:36:34.574Z,4.50
2023-02-18T09:39:02.890Z,4.30
2023-02-18T09:41:44.888Z,3.80
2023-02-18T09:44:39.685Z,3.80
2023-02-18T09:47:18.400Z,4.00
2023-02-18T09:49:58.550Z,4.20
2023-02-18T09:52:37.529Z,4.60
2023-02-18T09:55:19.484Z,4.30
2023-02-18T09:57:54.240Z,4.10
2023-02-18T10:00:33.538Z,3.70
2023-02-18T10:03:15.742Z,3.50
2023-02-18T10:06:12.040Z,3.70
2023-02-18T10:08:44.719Z,3.80
2023-02-18T10:11:16.930Z,4.40
2023-02-18T10:13:45.838Z,4.30
2023-02-18T10:16:19.391Z,4.40
2023-02-18T10:18:50.892Z,5.30
2023-02-18T10:21:22.772Z,4.80
2023-02-18T10:23:53.861Z,4.20
2023-02-18T10:26:22.531Z,4.20
2023-02-18T10:28:52.662Z,4.00
2023-02-18T10:31:30.682Z,4.50
2023-02-18T10:34:18.365Z,4.70
2023-02-18T10:36:51.205Z,5.30
2023-02-18T10:39:58.166Z,4.70
2023-02-18T10:42:26.233Z,4.30
2023-02-18T10:45:24.098Z,4.20
2023-02-18T10:48:49.503Z,4.50
2023-02-18T10:51:28.849Z,5.00
2023-02-18T10:53:56.916Z,4.60
2023-02-18T10:56:36.030Z,4.20
2023-02-18T10:59:10.877Z,4.70
2023-02-18T11:01:40.902Z,4.00
2023-02-18T11:04:37.142Z,4.50
2023-02-18T11:07:23.721Z,4.40
2023-02-18T11:09:56.843Z,4.80
2023-02-18T11:12:27.749Z,4.60
2023-02-18T11:15:18.331Z,4.90
2023-02-18T11:17:49.619Z,6.80
2023-02-18T11:20:33.747Z,6.70
2023-02-18T11:23:07.961Z,6.50
2023-02-18T11:25:39.199Z,5.60
2023-02-18T11:28:13.446Z,5.00
2023-02-18T11:30:44.331Z,5.60
2023-02-18T11:33:21.440Z,5.10
2023-02-18T11:35:52.178Z,4.90
2023-02-18T11:38:34.784Z,4.50
2023-02-18T11:41:12.236Z,5.00
2023-02-18T11:43:51.089Z,6.50
2023-02-18T11:46:22.975Z,4.90
2023-02-18T11:48:51.807Z,4.70
2023-02-18T11:51:19.790Z,4.60
2023-02-18T11:54:01.717Z,4.10
2023-02-18T11:56:33.107Z,4.20
2023-02-18T11:59:03.479Z,4.10
2023-02-18T12:02:00.677Z,4.00
2023-02-18T12:04:37.233Z,4.00
2023-02-18T12:07:05.609Z,3.80
2023-02-18T12:09:47.677Z,4.20
2023-02-18T12:12:32.545Z,4.50
2023-02-18T12:15:00.723Z,4.30
2023-02-18T12:17:41.935Z,4.50
2023-02-18T12:20:19.510Z,4.00
2023-02-18T12:23:23.394Z,4.40
2023-02-18T12:25:57.841Z,4.10
2023-02-18T12:28:41.863Z,4.00
2023-02-18T12:31:30.781Z,3.70
2023-02-18T12:34:20.199Z,4.00
2023-02-18T12:37:18.367Z,4.20
2023-02-18T12:40:17.271Z,4.20
2023-02-18T12:43:02.647Z,4.40
2023-02-18T12:45:50.953Z,4.60
2023-02-18T12:48:40.156Z,5.40
2023-02-18T12:51:25.832Z,4.90
2023-02-18T12:54:02.524Z,4.60
2023-02-18T12:56:43.990Z,4.10
2023-02-18T12:59:33.794Z,3.90
2023-02-18T13:02:13.820Z,4.00
2023-02-18T13:05:23.094Z,4.70
2023-02-18T13:08:26.249Z,4.40
2023-02-18T13:11:12.650Z,4.00
2023-02-18T13:13:46.208Z,5.40
2023-02-18T13:16:17.617Z,4.90
2023-02-18T13:18:54.930Z,5.40
2023-02-18T13:21:23.783Z,4.70
2023-02-18T13:24:10.580Z,4.60
2023-02-18T13:26:40.916Z,4.90
2023-02-18T13:29:15.151Z,5.20
2023-02-18T13:32:11.012Z,5.70
2023-02-18T13:34:57.544Z,5.10
2023-02-18T13:37:43.838Z,5.60
2023-02-18T13:40:21.644Z,5.20
2023-02-18T13:42:54.052Z,5.20
2023-02-18T13:45:34.125Z,4.90
2023-02-18T13:48:02.714Z,6.80
2023-02-18T13:50:33.934Z,5.70
2023-02-18T13:53:08.228Z,5.20
2023-02-18T13:55:51.641Z,5.00
2023-02-18T13:58:24.878Z,5.90
2023-02-18T14:01:03.439Z,6.40
2023-02-18T14:03:50.556Z,6.80
2023-02-18T14:06:23.508Z,7.00
2023-02-18T14:08:52.637Z,7.00
2023-02-18T14:11:20.608Z,5.60
2023-02-18T14:14:13.871Z,6.20
2023-02-18T14:17:19.282Z,6.00
2023-02-18T14:20:17.305Z,6.10
2023-02-18T14:22:46.891Z,6.20
2023-02-18T14:25:14.960Z,5.40
2023-02-18T14:27:43.925Z,6.70
2023-02-18T14:30:20.239Z,6.40
2023-02-18T14:32:51.153Z,5.90
2023-02-18T14:35:38.064Z,5.70
2023-02-18T14:38:28.465Z,7.20
2023-02-18T14:41:24.382Z,8.40
2023-02-18T14:44:04.441Z,7.50
2023-02-18T14:47:19.928Z,5.30
2023-02-18T14:49:54.442Z,7.30
2023-02-18T14:52:41.274Z,7.90
2023-02-18T14:55:29.088Z,5.70
2023-02-18T14:58:36.478Z,6.20
2023-02-18T15:01:30.197Z,5.90
2023-02-18T15:03:58.802Z,7.30
2023-02-18T15:06:30.799Z,5.70
2023-02-18T15:09:00.386Z,7.00
2023-02-18T15:11:37.344Z,9.60
2023-02-18T15:14:14.277Z,13.80
2023-02-18T15:16:44.787Z,9.10
2023-02-18T15:19:18.573Z,9.90
2023-02-18T15:21:49.319Z,8.60
2023-02-18T15:24:38.693Z,9.70
2023-02-18T15:27:22.617Z,10.80
2023-02-18T15:29:53.224Z,10.40
2023-02-18T15:32:27.654Z,10.50
2023-02-18T15:35:02.614Z,10.60
2023-02-18T15:37:31.317Z,9.50
2023-02-18T15:39:59.470Z,10.60
2023-02-18T15:42:36.242Z,8.00
2023-02-18T15:45:31.143Z,7.10
2023-02-18T15:48:00.427Z,7.60
2023-02-18T15:50:30.711Z,9.10
2023-02-18T15:53:05.599Z,6.80
2023-02-18T15:55:37.449Z,7.30
2023-02-18T15:58:12.281Z,7.80
2023-02-18T16:00:47.305Z,6.40
2023-02-18T16:03:27.205Z,5.90
2023-02-18T16:06:18.771Z,6.40
2023-02-18T16:09:03.951Z,6.40
2023-02-18T16:11:39.398Z,6.70
2023-02-18T16:14:07.878Z,6.50
2023-02-18T16:16:39.655Z,6.80
2023-02-18T16:19:24.805Z,7.50
2023-02-18T16:21:52.875Z,11.10
2023-02-18T16:24:29.543Z,8.20
2023-02-18T16:26:59.330Z,8.80
2023-02-18T16:29:36.544Z,7.80
2023-02-18T16:32:05.105Z,7.30
2023-02-18T16:34:33.364Z,6.50
2023-02-18T16:37:20.634Z,6.80
2023-02-18T16:39:52.131Z,7.10
2023-02-18T16:42:20.144Z,7.90
2023-02-18T16:44:50.122Z,8.00
2023-02-18T16:47:19.711Z,8.30
2023-02-18T16:49:51.267Z,8.10
2023-02-18T16:52:20.124Z,8.10
2023-02-18T16:54:48.470Z,7.50
2023-02-18T16:57:16.659Z,7.60
2023-02-18T16:59:44.619Z,7.10
2023-02-18T17:02:20.367Z,7.20
2023-02-18T17:04:48.446Z,6.90
2023-02-18T17:07:16.819Z,7.60
2023-02-18T17:09:44.747Z,8.30
2023-02-18T17:12:13.575Z,7.80
2023-02-18T17:14:41.826Z,8.20
2023-02-18T17:17:18.092Z,8.60
2023-02-18T17:19:46.260Z,10.50
2023-02-18T17:22:15.072Z,10.80
2023-02-18T17:24:43.244Z,10.20
2023-02-18T17:27:11.321Z,10.70
2023-02-18T17:29:39.294Z,8.80
2023-02-18T17:32:08.951Z,7.90
2023-02-18T17:34:41.226Z,10.60
2023-02-18T17:37:13.290Z,11.80
2023-02-18T17:39:41.295Z,12.90
2023-02-18T17:42:11.482Z,12.60
2023-02-18T17:44:40.479Z,11.50
2023-02-18T17:47:08.487Z,11.80
2023-02-18T17:49:36.656Z,11.90
2023-02-18T17:52:05.630Z,9.70
2023-02-18T17:54:33.816Z,9.60
2023-02-18T17:57:01.906Z,11.10
2023-02-18T17:59:30.672Z,10.70
2023-02-18T18:01:58.750Z,10.10
2023-02-18T18:04:26.902Z,10.90
2023-02-18T18:06:55.727Z,9.90
2023-02-18T18:09:24.821Z,11.30
2023-02-18T18:11:52.891Z,13.50
2023-02-18T18:14:20.936Z,12.10
2023-02-18T18:16:49.060Z,10.20
2023-02-18T18:19:17.178Z,11.00
2023-02-18T18:21:47.610Z,9.70
2023-02-18T18:24:15.582Z,8.60
2023-02-18T18:26:43.753Z,8.90
2023-02-18T18:29:11.856Z,9.50
2023-02-18T18:31:40.014Z,9.30
2023-02-18T18:34:09.961Z,8.50
2023-02-18T18:36:38.082Z,9.50
2023-02-18T18:39:07.276Z,10.00
2023-02-18T18:41:35.454Z,9.00
2023-02-18T18:44:04.918Z,8.70
2023-02-18T18:46:33.121Z,8.20
2023-02-18T18:49:01.306Z,8.20
2023-02-18T18:51:31.524Z,7.70
2023-02-18T18:53:59.696Z,9.50
2023-02-18T18:56:27.682Z,8.00
2023-02-18T18:58:55.950Z,8.50
2023-02-18T19:01:27.350Z,8.80
2023-02-18T19:03:55.912Z,8.00
2023-02-18T19:06:24.040Z,8.30
2023-02-18T19:08:52.029Z,8.50
2023-02-18T19:11:20.277Z,8.80
2023-02-18T19:13:48.506Z,8.60
2023-02-18T19:16:20.077Z,9.30
2023-02-18T19:18:48.691Z,8.80
2023-02-18T19:21:17.055Z,9.30
2023-02-18T19:23:45.583Z,9.50
2023-02-18T19:26:15.937Z,9.60
2023-02-18T19:28:45.139Z,9.80
2023-02-18T19:31:13.866Z,10.20
2023-02-18T19:33:45.814Z,9.70
2023-02-18T19:36:14.987Z,10.00
2023-02-18T19:38:43.186Z,9.40
2023-02-18T19:41:14.728Z,9.60
2023-02-18T19:43:47.214Z,8.70
2023-02-18T19:46:18.531Z,8.10
2023-02-18T19:48:52.704Z,7.80
2023-02-18T19:51:25.246Z,7.60
2023-02-18T19:53:54.654Z,7.10
2023-02-18T19:56:24.446Z,7.70
2023-02-18T19:58:55.923Z,8.60
2023-02-18T20:01:23.919Z,8.10
2023-02-18T20:03:51.954Z,9.00
2023-02-18T20:06:21.254Z,8.20
2023-02-18T20:08:49.429Z,9.20
2023-02-18T20:11:17.798Z,8.80
2023-02-18T20:13:47.831Z,10.10
2023-02-18T20:16:15.849Z,9.50
2023-02-18T20:18:43.942Z,9.30
2023-02-18T20:21:12.412Z,8.90
2023-02-18T20:23:41.059Z,8.50
2023-02-18T20:26:09.871Z,8.60
2023-02-18T20:28:37.985Z,9.20
2023-02-18T20:31:12.103Z,9.20
2023-02-18T20:33:42.425Z,9.30
2023-02-18T20:36:12.232Z,9.20
2023-02-18T20:38:40.317Z,8.60
2023-02-18T20:41:12.081Z,8.60
2023-02-18T20:43:41.762Z,8.10
2023-02-18T20:46:13.045Z,7.80
2023-02-18T20:48:41.807Z,7.60
2023-02-18T20:51:13.039Z,7.70
2023-02-18T20:53:42.544Z,7.10
2023-02-18T20:56:11.124Z,7.70
2023-02-18T20:58:40.215Z,7.00
2023-02-18T21:01:11.618Z,5.90
2023-02-18T21:03:40.761Z,5.70
2023-02-18T21:06:13.951Z,5.80
2023-02-18T21:08:43.866Z,5.60
2023-02-18T21:11:18.083Z,5.20
2023-02-18T21:13:48.005Z,5.60
2023-02-18T21:16:18.167Z,5.60
2023-02-18T21:18:46.360Z,5.30
2023-02-18T21:21:14.977Z,4.80
2023-02-18T21:23:43.247Z,5.50
2023-02-18T21:26:14.648Z,6.20
2023-02-18T21:28:43.589Z,6.00
2023-02-18T21:31:33.530Z,7.50
2023-02-18T21:34:02.854Z,6.80
2023-02-18T21:36:32.031Z,6.20
2023-02-18T21:39:05.617Z,6.00
2023-02-18T21:41:34.963Z,5.20
2023-02-18T21:44:03.393Z,5.50
2023-02-18T21:46:33.708Z,5.60
2023-02-18T21:49:12.746Z,6.00
2023-02-18T21:52:08.555Z,6.20
2023-02-18T21:54:42.694Z,6.50
2023-02-18T21:57:12.645Z,6.30
2023-02-18T21:59:41.663Z,6.50
2023-02-18T22:02:19.103Z,5.60
2023-02-18T22:04:48.630Z,5.90
2023-02-18T22:07:17.825Z,5.70
2023-02-18T22:09:48.344Z,5.70
2023-02-18T22:12:17.656Z,5.80
2023-02-18T22:14:46.135Z,5.20
2023-02-18T22:17:16.264Z,5.60
2023-02-18T22:19:44.640Z,5.60
2023-02-18T22:22:12.606Z,6.00
2023-02-18T22:24:40.984Z,6.60
2023-02-18T22:27:09.367Z,5.20
2023-02-18T22:29:37.830Z,5.20
2023-02-18T22:32:06.067Z,4.70
2023-02-18T22:34:34.382Z,3.90
2023-02-18T22:37:02.457Z,4.90
2023-02-18T22:39:30.524Z,4.50
2023-02-18T22:41:58.588Z,4.80
2023-02-18T22:44:27.614Z,4.80
2023-02-18T22:46:57.188Z,4.40
2023-02-18T22:49:25.769Z,4.40
2023-02-18T22:51:54.621Z,4.40
2023-02-18T22:54:22.734Z,4.20
2023-02-18T22:56:50.818Z,4.40
2023-02-18T22:59:19.698Z,4.60
2023-02-18T23:01:49.711Z,4.60
2023-02-18T23:04:20.500Z,4.70
2023-02-18T23:06:50.335Z,4.60
2023-02-18T23:09:22.354Z,4.70
2023-02-18T23:11:53.349Z,4.90
2023-02-18T23:14:22.181Z,4.10
2023-02-18T23:17:14.285Z,4.60
2023-02-18T23:19:53.354Z,4.00
2023-02-18T23:22:33.690Z,3.80
2023-02-18T23:25:02.554Z,3.90
2023-02-18T23:27:31.340Z,4.10
2023-02-18T23:29:59.495Z,4.10
2023-02-18T23:32:29.020Z,4.10
2023-02-18T23:34:57.205Z,4.20
2023-02-18T23:37:45.246Z,4.60
2023-02-18T23:40:15.109Z,4.50
2023-02-18T23:42:43.220Z,4.00
2023-02-18T23:45:11.290Z,4.20
2023-02-18T23:47:39.266Z,4.30
2023-02-18T23:50:07.636Z,4.60
2023-02-18T23:52:35.705Z,4.30
2023-02-18T23:55:03.975Z,4.10
2023-02-18T23:57:33.085Z,4.10
